sensor_id;sensor_type;location;lat;lon;timestamp;P1;durP1;ratioP1;P2;durP2;ratioP2
19836;SDS011;10079;55.740;37.662;2023-03-03T00:08:02;5.67;;;2.20;;
19836;SDS011;10079;55.740;37.662;2023-03-03T00:10:42;4.33;;;1.90;;
19836;SDS011;10079;55.740;37.662;2023-03-03T00:24:02;4.43;;;2.10;;
19836;SDS011;10079;55.740;37.662;2023-03-03T00:26:59;2.70;;;1.30;;
19836;SDS011;10079;55.740;37.662;2023-03-03T00:29:39;4.30;;;2.13;;
19836;SDS011;10079;55.740;37.662;2023-03-03T00:32:21;4.13;;;1.87;;
19836;SDS011;10079;55.740;37.662;2023-03-03T00:35:23;4.03;;;1.47;;
19836;SDS011;10079;55.740;37.662;2023-03-03T00:40:52;4.20;;;1.60;;
19836;SDS011;10079;55.740;37.662;2023-03-03T00:43:34;4.57;;;2.00;;
19836;SDS011;10079;55.740;37.662;2023-03-03T00:46:23;5.57;;;1.83;;
19836;SDS011;10079;55.740;37.662;2023-03-03T00:59:43;5.47;;;2.10;;
19836;SDS011;10079;55.740;37.662;2023-03-03T01:02:32;5.50;;;1.80;;
19836;SDS011;10079;55.740;37.662;2023-03-03T01:05:14;3.33;;;1.27;;
19836;SDS011;10079;55.740;37.662;2023-03-03T01:08:03;2.73;;;1.40;;
19836;SDS011;10079;55.740;37.662;2023-03-03T01:10:50;3.03;;;1.40;;
19836;SDS011;10079;55.740;37.662;2023-03-03T01:13:31;3.70;;;1.40;;
19836;SDS011;10079;55.740;37.662;2023-03-03T01:16:15;4.27;;;1.50;;
19836;SDS011;10079;55.740;37.662;2023-03-03T01:18:55;4.10;;;1.60;;
19836;SDS011;10079;55.740;37.662;2023-03-03T01:21:36;4.57;;;1.17;;
19836;SDS011;10079;55.740;37.662;2023-03-03T01:24:21;5.20;;;1.50;;
19836;SDS011;10079;55.740;37.662;2023-03-03T01:27:01;4.30;;;1.57;;
19836;SDS011;10079;55.740;37.662;2023-03-03T01:29:50;3.90;;;1.43;;
19836;SDS011;10079;55.740;37.662;2023-03-03T01:32:34;5.27;;;1.40;;
19836;SDS011;10079;55.740;37.662;2023-03-03T01:35:24;4.27;;;1.20;;
19836;SDS011;10079;55.740;37.662;2023-03-03T01:38:17;5.33;;;3.13;;
19836;SDS011;10079;55.740;37.662;2023-03-03T01:40:58;4.07;;;1.33;;
19836;SDS011;10079;55.740;37.662;2023-03-03T01:43:42;2.57;;;1.30;;
19836;SDS011;10079;55.740;37.662;2023-03-03T01:46:32;3.83;;;1.43;;
19836;SDS011;10079;55.740;37.662;2023-03-03T01:49:18;6.17;;;1.70;;
19836;SDS011;10079;55.740;37.662;2023-03-03T01:52:02;5.07;;;1.20;;
19836;SDS011;10079;55.740;37.662;2023-03-03T01:54:43;6.30;;;1.47;;
19836;SDS011;10079;55.740;37.662;2023-03-03T01:57:26;4.10;;;1.83;;
19836;SDS011;10079;55.740;37.662;2023-03-03T02:00:17;4.43;;;1.70;;
19836;SDS011;10079;55.740;37.662;2023-03-03T02:02:59;3.50;;;1.70;;
19836;SDS011;10079;55.740;37.662;2023-03-03T02:05:40;3.37;;;1.50;;
19836;SDS011;10079;55.740;37.662;2023-03-03T02:08:22;6.10;;;1.60;;
19836;SDS011;10079;55.740;37.662;2023-03-03T02:11:02;3.53;;;1.80;;
19836;SDS011;10079;55.740;37.662;2023-03-03T02:13:47;3.87;;;2.30;;
19836;SDS011;10079;55.740;37.662;2023-03-03T02:16:27;4.40;;;1.80;;
19836;SDS011;10079;55.740;37.662;2023-03-03T02:19:16;4.67;;;1.90;;
19836;SDS011;10079;55.740;37.662;2023-03-03T02:22:10;4.90;;;1.83;;
19836;SDS011;10079;55.740;37.662;2023-03-03T02:24:52;4.63;;;1.80;;
19836;SDS011;10079;55.740;37.662;2023-03-03T02:27:43;5.07;;;2.00;;
19836;SDS011;10079;55.740;37.662;2023-03-03T02:30:24;4.33;;;1.97;;
19836;SDS011;10079;55.740;37.662;2023-03-03T02:33:05;4.77;;;2.00;;
19836;SDS011;10079;55.740;37.662;2023-03-03T02:35:46;4.10;;;2.47;;
19836;SDS011;10079;55.740;37.662;2023-03-03T02:38:33;4.10;;;1.87;;
19836;SDS011;10079;55.740;37.662;2023-03-03T02:41:20;4.17;;;1.73;;
19836;SDS011;10079;55.740;37.662;2023-03-03T02:44:21;3.47;;;2.10;;
19836;SDS011;10079;55.740;37.662;2023-03-03T02:47:01;5.33;;;2.03;;
19836;SDS011;10079;55.740;37.662;2023-03-03T03:00:24;4.63;;;2.50;;
19836;SDS011;10079;55.740;37.662;2023-03-03T03:14:04;4.70;;;2.17;;
19836;SDS011;10079;55.740;37.662;2023-03-03T03:16:56;8.17;;;2.33;;
19836;SDS011;10079;55.740;37.662;2023-03-03T03:19:38;5.00;;;2.10;;
19836;SDS011;10079;55.740;37.662;2023-03-03T03:22:19;5.80;;;2.27;;
19836;SDS011;10079;55.740;37.662;2023-03-03T03:35:46;5.20;;;2.80;;
19836;SDS011;10079;55.740;37.662;2023-03-03T03:38:26;7.13;;;2.20;;
19836;SDS011;10079;55.740;37.662;2023-03-03T03:41:16;4.83;;;2.17;;
19836;SDS011;10079;55.740;37.662;2023-03-03T03:44:20;4.10;;;2.03;;
19836;SDS011;10079;55.740;37.662;2023-03-03T03:47:01;6.47;;;2.13;;
19836;SDS011;10079;55.740;37.662;2023-03-03T03:49:41;4.77;;;2.10;;
19836;SDS011;10079;55.740;37.662;2023-03-03T03:52:22;8.27;;;2.70;;
19836;SDS011;10079;55.740;37.662;2023-03-03T03:55:03;5.13;;;2.47;;
19836;SDS011;10079;55.740;37.662;2023-03-03T03:57:45;6.67;;;2.50;;
19836;SDS011;10079;55.740;37.662;2023-03-03T04:00:25;3.77;;;2.33;;
19836;SDS011;10079;55.740;37.662;2023-03-03T04:03:06;7.37;;;2.53;;
19836;SDS011;10079;55.740;37.662;2023-03-03T04:05:51;6.43;;;2.77;;
19836;SDS011;10079;55.740;37.662;2023-03-03T04:08:32;7.70;;;2.70;;
19836;SDS011;10079;55.740;37.662;2023-03-03T04:11:12;7.60;;;3.10;;
19836;SDS011;10079;55.740;37.662;2023-03-03T04:13:53;7.27;;;2.70;;
19836;SDS011;10079;55.740;37.662;2023-03-03T04:16:37;8.53;;;3.20;;
19836;SDS011;10079;55.740;37.662;2023-03-03T04:19:18;6.73;;;2.67;;
19836;SDS011;10079;55.740;37.662;2023-03-03T04:22:11;9.33;;;3.00;;
19836;SDS011;10079;55.740;37.662;2023-03-03T04:24:51;7.20;;;2.60;;
19836;SDS011;10079;55.740;37.662;2023-03-03T04:27:36;14.07;;;3.40;;
19836;SDS011;10079;55.740;37.662;2023-03-03T04:30:18;7.23;;;2.90;;
19836;SDS011;10079;55.740;37.662;2023-03-03T04:33:02;8.47;;;3.33;;
19836;SDS011;10079;55.740;37.662;2023-03-03T04:35:55;7.00;;;2.50;;
19836;SDS011;10079;55.740;37.662;2023-03-03T04:38:35;5.80;;;2.70;;
19836;SDS011;10079;55.740;37.662;2023-03-03T04:41:17;7.90;;;2.53;;
19836;SDS011;10079;55.740;37.662;2023-03-03T04:43:58;7.27;;;2.50;;
19836;SDS011;10079;55.740;37.662;2023-03-03T04:46:39;10.83;;;3.73;;
19836;SDS011;10079;55.740;37.662;2023-03-03T04:49:20;9.37;;;2.70;;
19836;SDS011;10079;55.740;37.662;2023-03-03T05:02:32;10.27;;;3.13;;
19836;SDS011;10079;55.740;37.662;2023-03-03T05:05:16;6.47;;;2.87;;
19836;SDS011;10079;55.740;37.662;2023-03-03T05:07:57;5.60;;;2.47;;
19836;SDS011;10079;55.740;37.662;2023-03-03T05:10:38;6.47;;;2.27;;
19836;SDS011;10079;55.740;37.662;2023-03-03T05:13:19;6.37;;;2.83;;
19836;SDS011;10079;55.740;37.662;2023-03-03T05:16:00;8.93;;;3.20;;
19836;SDS011;10079;55.740;37.662;2023-03-03T05:18:41;7.77;;;3.40;;
19836;SDS011;10079;55.740;37.662;2023-03-03T05:21:22;5.90;;;2.80;;
19836;SDS011;10079;55.740;37.662;2023-03-03T05:24:03;8.80;;;3.27;;
19836;SDS011;10079;55.740;37.662;2023-03-03T05:26:44;6.70;;;2.53;;
19836;SDS011;10079;55.740;37.662;2023-03-03T05:40:15;6.40;;;2.07;;
19836;SDS011;10079;55.740;37.662;2023-03-03T05:43:05;6.07;;;2.10;;
19836;SDS011;10079;55.740;37.662;2023-03-03T05:45:45;8.30;;;2.50;;
19836;SDS011;10079;55.740;37.662;2023-03-03T05:48:39;6.97;;;1.90;;
19836;SDS011;10079;55.740;37.662;2023-03-03T06:02:03;7.90;;;2.00;;
19836;SDS011;10079;55.740;37.662;2023-03-03T06:04:44;4.97;;;1.87;;
19836;SDS011;10079;55.740;37.662;2023-03-03T06:07:36;6.83;;;2.17;;
19836;SDS011;10079;55.740;37.662;2023-03-03T06:10:29;7.30;;;2.10;;
19836;SDS011;10079;55.740;37.662;2023-03-03T06:13:10;6.37;;;2.13;;
19836;SDS011;10079;55.740;37.662;2023-03-03T06:15:50;6.30;;;2.10;;
19836;SDS011;10079;55.740;37.662;2023-03-03T06:29:05;7.63;;;1.80;;
19836;SDS011;10079;55.740;37.662;2023-03-03T06:31:54;4.43;;;2.10;;
19836;SDS011;10079;55.740;37.662;2023-03-03T06:34:43;7.70;;;2.30;;
19836;SDS011;10079;55.740;37.662;2023-03-03T06:47:55;4.57;;;2.30;;
19836;SDS011;10079;55.740;37.662;2023-03-03T06:50:45;7.83;;;1.93;;
19836;SDS011;10079;55.740;37.662;2023-03-03T06:53:25;7.03;;;2.17;;
19836;SDS011;10079;55.740;37.662;2023-03-03T06:56:07;4.97;;;1.87;;
19836;SDS011;10079;55.740;37.662;2023-03-03T06:58:53;7.00;;;1.83;;
19836;SDS011;10079;55.740;37.662;2023-03-03T07:01:36;3.80;;;1.57;;
19836;SDS011;10079;55.740;37.662;2023-03-03T07:07:17;10.60;;;3.07;;
19836;SDS011;10079;55.740;37.662;2023-03-03T07:10:17;4.20;;;2.07;;
19836;SDS011;10079;55.740;37.662;2023-03-03T07:13:00;9.53;;;3.00;;
19836;SDS011;10079;55.740;37.662;2023-03-03T07:15:38;5.70;;;1.80;;
19836;SDS011;10079;55.740;37.662;2023-03-03T07:18:35;7.27;;;2.10;;
19836;SDS011;10079;55.740;37.662;2023-03-03T07:21:16;4.13;;;1.93;;
19836;SDS011;10079;55.740;37.662;2023-03-03T07:23:57;6.33;;;2.07;;
19836;SDS011;10079;55.740;37.662;2023-03-03T07:26:41;6.97;;;1.93;;
19836;SDS011;10079;55.740;37.662;2023-03-03T07:29:24;4.27;;;1.73;;
19836;SDS011;10079;55.740;37.662;2023-03-03T07:32:05;7.20;;;2.03;;
19836;SDS011;10079;55.740;37.662;2023-03-03T07:34:46;8.30;;;2.20;;
19836;SDS011;10079;55.740;37.662;2023-03-03T07:37:39;4.77;;;1.93;;
19836;SDS011;10079;55.740;37.662;2023-03-03T07:40:37;7.40;;;2.57;;
19836;SDS011;10079;55.740;37.662;2023-03-03T07:46:24;6.03;;;2.60;;
19836;SDS011;10079;55.740;37.662;2023-03-03T07:52:16;4.23;;;1.70;;
19836;SDS011;10079;55.740;37.662;2023-03-03T07:54:55;4.50;;;1.80;;
19836;SDS011;10079;55.740;37.662;2023-03-03T07:57:36;4.57;;;1.60;;
19836;SDS011;10079;55.740;37.662;2023-03-03T08:03:37;4.90;;;1.53;;
19836;SDS011;10079;55.740;37.662;2023-03-03T08:09:38;7.57;;;1.50;;
19836;SDS011;10079;55.740;37.662;2023-03-03T08:12:26;4.93;;;1.93;;
19836;SDS011;10079;55.740;37.662;2023-03-03T08:15:12;8.10;;;1.63;;
19836;SDS011;10079;55.740;37.662;2023-03-03T08:28:56;8.27;;;2.07;;
19836;SDS011;10079;55.740;37.662;2023-03-03T08:31:46;6.13;;;1.50;;
19836;SDS011;10079;55.740;37.662;2023-03-03T08:34:27;7.60;;;2.20;;
19836;SDS011;10079;55.740;37.662;2023-03-03T08:37:12;4.73;;;1.60;;
19836;SDS011;10079;55.740;37.662;2023-03-03T08:39:56;4.70;;;1.90;;
19836;SDS011;10079;55.740;37.662;2023-03-03T08:42:36;3.10;;;1.50;;
19836;SDS011;10079;55.740;37.662;2023-03-03T08:45:20;6.47;;;1.60;;
19836;SDS011;10079;55.740;37.662;2023-03-03T08:48:17;5.70;;;1.83;;
19836;SDS011;10079;55.740;37.662;2023-03-03T08:51:03;4.80;;;1.67;;
19836;SDS011;10079;55.740;37.662;2023-03-03T08:53:57;3.13;;;1.37;;
19836;SDS011;10079;55.740;37.662;2023-03-03T08:56:38;4.73;;;1.50;;
19836;SDS011;10079;55.740;37.662;2023-03-03T08:59:28;3.67;;;1.80;;
19836;SDS011;10079;55.740;37.662;2023-03-03T09:02:12;6.77;;;1.23;;
19836;SDS011;10079;55.740;37.662;2023-03-03T09:04:56;3.93;;;1.73;;
19836;SDS011;10079;55.740;37.662;2023-03-03T09:18:13;6.53;;;2.17;;
19836;SDS011;10079;55.740;37.662;2023-03-03T09:20:56;7.97;;;2.23;;
19836;SDS011;10079;55.740;37.662;2023-03-03T09:23:37;5.10;;;1.70;;
19836;SDS011;10079;55.740;37.662;2023-03-03T09:26:23;7.53;;;1.90;;
19836;SDS011;10079;55.740;37.662;2023-03-03T09:29:24;3.57;;;1.60;;
19836;SDS011;10079;55.740;37.662;2023-03-03T09:32:34;4.43;;;1.70;;
19836;SDS011;10079;55.740;37.662;2023-03-03T09:35:39;5.57;;;1.70;;
19836;SDS011;10079;55.740;37.662;2023-03-03T09:49:10;7.43;;;2.50;;
19836;SDS011;10079;55.740;37.662;2023-03-03T09:51:56;7.17;;;3.00;;
19836;SDS011;10079;55.740;37.662;2023-03-03T09:54:50;6.13;;;2.20;;
19836;SDS011;10079;55.740;37.662;2023-03-03T09:57:41;4.20;;;1.50;;
19836;SDS011;10079;55.740;37.662;2023-03-03T10:00:41;3.17;;;1.43;;
19836;SDS011;10079;55.740;37.662;2023-03-03T10:06:26;3.50;;;1.30;;
19836;SDS011;10079;55.740;37.662;2023-03-03T10:09:09;3.90;;;1.50;;
19836;SDS011;10079;55.740;37.662;2023-03-03T10:12:03;2.93;;;1.20;;
19836;SDS011;10079;55.740;37.662;2023-03-03T10:17:47;3.93;;;1.30;;
19836;SDS011;10079;55.740;37.662;2023-03-03T10:20:35;6.27;;;1.90;;
19836;SDS011;10079;55.740;37.662;2023-03-03T10:23:23;8.80;;;2.20;;
19836;SDS011;10079;55.740;37.662;2023-03-03T10:29:32;2.93;;;1.43;;
19836;SDS011;10079;55.740;37.662;2023-03-03T10:35:32;3.53;;;1.70;;
19836;SDS011;10079;55.740;37.662;2023-03-03T10:38:18;3.80;;;1.43;;
19836;SDS011;10079;55.740;37.662;2023-03-03T10:41:17;4.10;;;1.97;;
19836;SDS011;10079;55.740;37.662;2023-03-03T10:44:22;5.90;;;1.90;;
19836;SDS011;10079;55.740;37.662;2023-03-03T11:14:26;9.73;;;2.53;;
19836;SDS011;10079;55.740;37.662;2023-03-03T11:17:22;6.33;;;2.63;;
19836;SDS011;10079;55.740;37.662;2023-03-03T11:26:31;5.27;;;1.30;;
19836;SDS011;10079;55.740;37.662;2023-03-03T11:35:18;3.00;;;1.03;;
19836;SDS011;10079;55.740;37.662;2023-03-03T11:38:23;3.33;;;1.50;;
19836;SDS011;10079;55.740;37.662;2023-03-03T11:41:07;3.27;;;1.40;;
19836;SDS011;10079;55.740;37.662;2023-03-03T11:47:31;5.67;;;1.60;;
19836;SDS011;10079;55.740;37.662;2023-03-03T11:50:46;3.27;;;1.80;;
19836;SDS011;10079;55.740;37.662;2023-03-03T11:54:04;3.77;;;1.63;;
19836;SDS011;10079;55.740;37.662;2023-03-03T11:57:17;5.07;;;1.57;;
19836;SDS011;10079;55.740;37.662;2023-03-03T12:00:31;4.60;;;1.53;;
19836;SDS011;10079;55.740;37.662;2023-03-03T12:04:14;3.07;;;1.07;;
19836;SDS011;10079;55.740;37.662;2023-03-03T12:10:21;4.67;;;1.80;;
19836;SDS011;10079;55.740;37.662;2023-03-03T12:16:56;7.97;;;2.87;;
19836;SDS011;10079;55.740;37.662;2023-03-03T12:20:16;10.00;;;3.00;;
19836;SDS011;10079;55.740;37.662;2023-03-03T12:23:25;3.43;;;1.90;;
19836;SDS011;10079;55.740;37.662;2023-03-03T12:30:38;5.00;;;1.80;;
19836;SDS011;10079;55.740;37.662;2023-03-03T12:33:53;5.10;;;1.90;;
19836;SDS011;10079;55.740;37.662;2023-03-03T12:37:06;2.33;;;1.27;;
19836;SDS011;10079;55.740;37.662;2023-03-03T12:40:23;1.57;;;1.10;;
19836;SDS011;10079;55.740;37.662;2023-03-03T12:43:34;2.90;;;1.57;;
19836;SDS011;10079;55.740;37.662;2023-03-03T12:53:19;3.87;;;1.83;;
19836;SDS011;10079;55.740;37.662;2023-03-03T12:56:36;2.03;;;1.60;;
19836;SDS011;10079;55.740;37.662;2023-03-03T12:59:49;4.47;;;1.73;;
19836;SDS011;10079;55.740;37.662;2023-03-03T13:06:20;3.77;;;1.53;;
19836;SDS011;10079;55.740;37.662;2023-03-03T13:09:27;5.13;;;1.67;;
19836;SDS011;10079;55.740;37.662;2023-03-03T13:12:37;5.80;;;2.13;;
19836;SDS011;10079;55.740;37.662;2023-03-03T13:15:47;6.87;;;1.70;;
19836;SDS011;10079;55.740;37.662;2023-03-03T13:18:54;5.20;;;1.67;;
19836;SDS011;10079;55.740;37.662;2023-03-03T13:24:44;3.57;;;1.70;;
19836;SDS011;10079;55.740;37.662;2023-03-03T13:38:12;4.37;;;1.77;;
19836;SDS011;10079;55.740;37.662;2023-03-03T13:40:56;3.40;;;1.53;;
19836;SDS011;10079;55.740;37.662;2023-03-03T13:43:48;3.67;;;1.80;;
19836;SDS011;10079;55.740;37.662;2023-03-03T13:46:44;4.00;;;1.30;;
19836;SDS011;10079;55.740;37.662;2023-03-03T13:49:54;4.60;;;1.37;;
19836;SDS011;10079;55.740;37.662;2023-03-03T13:53:03;4.90;;;1.57;;
19836;SDS011;10079;55.740;37.662;2023-03-03T13:58:51;4.93;;;1.40;;
19836;SDS011;10079;55.740;37.662;2023-03-03T14:15:10;6.60;;;2.10;;
19836;SDS011;10079;55.740;37.662;2023-03-03T14:18:20;3.77;;;1.50;;
19836;SDS011;10079;55.740;37.662;2023-03-03T14:21:06;3.30;;;1.40;;
19836;SDS011;10079;55.740;37.662;2023-03-03T14:24:02;6.40;;;2.57;;
19836;SDS011;10079;55.740;37.662;2023-03-03T14:26:45;7.27;;;3.00;;
19836;SDS011;10079;55.740;37.662;2023-03-03T14:29:34;3.73;;;1.90;;
19836;SDS011;10079;55.740;37.662;2023-03-03T14:32:20;6.43;;;1.70;;
19836;SDS011;10079;55.740;37.662;2023-03-03T14:35:01;4.33;;;1.63;;
19836;SDS011;10079;55.740;37.662;2023-03-03T14:37:43;3.83;;;1.70;;
19836;SDS011;10079;55.740;37.662;2023-03-03T14:40:29;3.90;;;1.70;;
19836;SDS011;10079;55.740;37.662;2023-03-03T14:46:14;2.93;;;1.30;;
19836;SDS011;10079;55.740;37.662;2023-03-03T14:48:49;7.97;;;3.10;;
19836;SDS011;10079;55.740;37.662;2023-03-03T14:51:24;5.80;;;2.37;;
19836;SDS011;10079;55.740;37.662;2023-03-03T14:54:08;4.83;;;2.30;;
19836;SDS011;10079;55.740;37.662;2023-03-03T14:56:58;2.67;;;1.20;;
19836;SDS011;10079;55.740;37.662;2023-03-03T14:59:38;4.37;;;1.40;;
19836;SDS011;10079;55.740;37.662;2023-03-03T15:02:23;3.27;;;1.27;;
19836;SDS011;10079;55.740;37.662;2023-03-03T15:05:14;6.80;;;2.13;;
19836;SDS011;10079;55.740;37.662;2023-03-03T15:07:57;4.50;;;1.80;;
19836;SDS011;10079;55.740;37.662;2023-03-03T15:11:10;5.03;;;1.47;;
19836;SDS011;10079;55.740;37.662;2023-03-03T15:14:03;3.40;;;1.33;;
19836;SDS011;10079;55.740;37.662;2023-03-03T15:16:52;3.13;;;1.33;;
19836;SDS011;10079;55.740;37.662;2023-03-03T15:19:39;2.03;;;1.10;;
19836;SDS011;10079;55.740;37.662;2023-03-03T15:25:21;2.77;;;1.20;;
19836;SDS011;10079;55.740;37.662;2023-03-03T15:34:03;3.53;;;1.67;;
19836;SDS011;10079;55.740;37.662;2023-03-03T15:36:57;3.60;;;1.40;;
19836;SDS011;10079;55.740;37.662;2023-03-03T15:39:57;2.20;;;1.47;;
19836;SDS011;10079;55.740;37.662;2023-03-03T15:42:46;6.97;;;1.97;;
19836;SDS011;10079;55.740;37.662;2023-03-03T15:45:31;4.83;;;2.80;;
19836;SDS011;10079;55.740;37.662;2023-03-03T15:48:18;3.23;;;2.53;;
19836;SDS011;10079;55.740;37.662;2023-03-03T15:53:53;5.07;;;2.07;;
19836;SDS011;10079;55.740;37.662;2023-03-03T16:07:41;6.50;;;2.10;;
19836;SDS011;10079;55.740;37.662;2023-03-03T16:21:02;4.20;;;1.70;;
19836;SDS011;10079;55.740;37.662;2023-03-03T16:34:25;6.07;;;2.80;;
19836;SDS011;10079;55.740;37.662;2023-03-03T16:40:27;4.87;;;1.30;;
19836;SDS011;10079;55.740;37.662;2023-03-03T16:46:26;3.17;;;1.30;;
19836;SDS011;10079;55.740;37.662;2023-03-03T16:59:49;2.57;;;1.50;;
19836;SDS011;10079;55.740;37.662;2023-03-03T17:02:48;3.37;;;1.43;;
19836;SDS011;10079;55.740;37.662;2023-03-03T17:05:43;3.80;;;2.17;;
19836;SDS011;10079;55.740;37.662;2023-03-03T17:08:38;2.83;;;1.60;;
19836;SDS011;10079;55.740;37.662;2023-03-03T17:11:34;3.30;;;1.80;;
19836;SDS011;10079;55.740;37.662;2023-03-03T17:17:19;3.70;;;1.70;;
19836;SDS011;10079;55.740;37.662;2023-03-03T17:20:01;3.83;;;1.53;;
19836;SDS011;10079;55.740;37.662;2023-03-03T17:22:43;5.83;;;2.10;;
19836;SDS011;10079;55.740;37.662;2023-03-03T17:25:34;3.83;;;1.70;;
19836;SDS011;10079;55.740;37.662;2023-03-03T17:28:18;5.00;;;1.80;;
19836;SDS011;10079;55.740;37.662;2023-03-03T17:34:19;4.40;;;1.60;;
19836;SDS011;10079;55.740;37.662;2023-03-03T17:37:02;5.70;;;1.73;;
19836;SDS011;10079;55.740;37.662;2023-03-03T17:40:04;3.27;;;1.73;;
19836;SDS011;10079;55.740;37.662;2023-03-03T17:45:58;4.47;;;1.90;;
19836;SDS011;10079;55.740;37.662;2023-03-03T17:48:42;5.20;;;1.43;;
19836;SDS011;10079;55.740;37.662;2023-03-03T17:51:40;5.33;;;3.07;;
19836;SDS011;10079;55.740;37.662;2023-03-03T17:54:40;5.33;;;1.50;;
19836;SDS011;10079;55.740;37.662;2023-03-03T17:57:36;4.63;;;1.37;;
19836;SDS011;10079;55.740;37.662;2023-03-03T18:00:28;3.43;;;1.63;;
19836;SDS011;10079;55.740;37.662;2023-03-03T18:06:12;3.50;;;1.70;;
19836;SDS011;10079;55.740;37.662;2023-03-03T18:09:11;6.20;;;1.73;;
19836;SDS011;10079;55.740;37.662;2023-03-03T18:12:01;2.57;;;1.50;;
19836;SDS011;10079;55.740;37.662;2023-03-03T18:14:45;4.07;;;1.77;;
19836;SDS011;10079;55.740;37.662;2023-03-03T18:17:34;6.03;;;2.00;;
19836;SDS011;10079;55.740;37.662;2023-03-03T18:20:31;4.67;;;2.40;;
19836;SDS011;10079;55.740;37.662;2023-03-03T18:23:24;3.83;;;1.87;;
19836;SDS011;10079;55.740;37.662;2023-03-03T19:02:35;6.20;;;2.27;;
19836;SDS011;10079;55.740;37.662;2023-03-03T19:05:18;6.87;;;2.73;;
19836;SDS011;10079;55.740;37.662;2023-03-03T19:07:59;11.00;;;3.23;;
19836;SDS011;10079;55.740;37.662;2023-03-03T19:10:43;7.73;;;4.13;;
19836;SDS011;10079;55.740;37.662;2023-03-03T19:13:41;8.10;;;3.33;;
19836;SDS011;10079;55.740;37.662;2023-03-03T19:16:26;7.63;;;3.40;;
19836;SDS011;10079;55.740;37.662;2023-03-03T19:19:16;9.17;;;3.63;;
19836;SDS011;10079;55.740;37.662;2023-03-03T19:25:01;7.20;;;2.73;;
19836;SDS011;10079;55.740;37.662;2023-03-03T19:27:55;8.53;;;3.40;;
19836;SDS011;10079;55.740;37.662;2023-03-03T19:31:02;6.30;;;3.40;;
19836;SDS011;10079;55.740;37.662;2023-03-03T19:44:24;8.87;;;2.97;;
19836;SDS011;10079;55.740;37.662;2023-03-03T19:47:03;12.30;;;3.00;;
19836;SDS011;10079;55.740;37.662;2023-03-03T19:49:51;7.27;;;3.10;;
19836;SDS011;10079;55.740;37.662;2023-03-03T19:52:38;5.87;;;2.93;;
19836;SDS011;10079;55.740;37.662;2023-03-03T19:55:32;5.80;;;2.77;;
19836;SDS011;10079;55.740;37.662;2023-03-03T19:58:26;5.50;;;2.60;;
19836;SDS011;10079;55.740;37.662;2023-03-03T20:15:02;8.50;;;3.20;;
19836;SDS011;10079;55.740;37.662;2023-03-03T20:18:02;4.43;;;2.67;;
19836;SDS011;10079;55.740;37.662;2023-03-03T20:20:53;6.87;;;3.20;;
19836;SDS011;10079;55.740;37.662;2023-03-03T20:23:58;7.90;;;2.80;;
19836;SDS011;10079;55.740;37.662;2023-03-03T20:26:44;6.53;;;2.33;;
19836;SDS011;10079;55.740;37.662;2023-03-03T20:29:27;4.73;;;2.57;;
19836;SDS011;10079;55.740;37.662;2023-03-03T20:32:17;7.63;;;2.30;;
19836;SDS011;10079;55.740;37.662;2023-03-03T20:35:18;6.17;;;2.13;;
19836;SDS011;10079;55.740;37.662;2023-03-03T20:38:08;5.37;;;2.30;;
19836;SDS011;10079;55.740;37.662;2023-03-03T20:43:54;5.93;;;2.73;;
19836;SDS011;10079;55.740;37.662;2023-03-03T20:46:57;4.60;;;2.20;;
19836;SDS011;10079;55.740;37.662;2023-03-03T20:49:48;3.60;;;1.90;;
19836;SDS011;10079;55.740;37.662;2023-03-03T20:52:31;5.13;;;2.30;;
19836;SDS011;10079;55.740;37.662;2023-03-03T20:55:13;5.80;;;2.47;;
19836;SDS011;10079;55.740;37.662;2023-03-03T20:58:11;4.00;;;2.20;;
19836;SDS011;10079;55.740;37.662;2023-03-03T21:01:03;4.70;;;2.27;;
19836;SDS011;10079;55.740;37.662;2023-03-03T21:03:44;6.70;;;3.83;;
19836;SDS011;10079;55.740;37.662;2023-03-03T21:06:35;7.00;;;2.90;;
19836;SDS011;10079;55.740;37.662;2023-03-03T21:09:31;6.13;;;2.43;;
19836;SDS011;10079;55.740;37.662;2023-03-03T21:12:27;6.37;;;2.63;;
19836;SDS011;10079;55.740;37.662;2023-03-03T21:15:20;4.33;;;2.20;;
19836;SDS011;10079;55.740;37.662;2023-03-03T21:18:18;5.00;;;2.30;;
19836;SDS011;10079;55.740;37.662;2023-03-03T21:21:04;7.57;;;2.40;;
19836;SDS011;10079;55.740;37.662;2023-03-03T21:23:45;5.40;;;2.40;;
19836;SDS011;10079;55.740;37.662;2023-03-03T21:29:26;4.37;;;2.53;;
19836;SDS011;10079;55.740;37.662;2023-03-03T21:32:32;5.97;;;2.60;;
19836;SDS011;10079;55.740;37.662;2023-03-03T21:35:05;6.77;;;2.53;;
19836;SDS011;10079;55.740;37.662;2023-03-03T21:37:47;6.73;;;2.53;;
19836;SDS011;10079;55.740;37.662;2023-03-03T21:40:39;8.07;;;2.60;;
19836;SDS011;10079;55.740;37.662;2023-03-03T21:46:19;4.57;;;2.50;;
19836;SDS011;10079;55.740;37.662;2023-03-03T21:49:08;7.33;;;2.80;;
19836;SDS011;10079;55.740;37.662;2023-03-03T21:51:53;5.33;;;2.33;;
19836;SDS011;10079;55.740;37.662;2023-03-03T21:54:42;6.20;;;2.80;;
19836;SDS011;10079;55.740;37.662;2023-03-03T22:08:02;5.87;;;2.57;;
19836;SDS011;10079;55.740;37.662;2023-03-03T22:21:18;5.07;;;2.53;;
19836;SDS011;10079;55.740;37.662;2023-03-03T22:23:59;5.63;;;2.97;;
19836;SDS011;10079;55.740;37.662;2023-03-03T22:26:39;6.17;;;2.30;;
19836;SDS011;10079;55.740;37.662;2023-03-03T22:29:20;6.53;;;2.40;;
19836;SDS011;10079;55.740;37.662;2023-03-03T22:32:04;5.27;;;2.13;;
19836;SDS011;10079;55.740;37.662;2023-03-03T22:34:49;3.07;;;1.87;;
19836;SDS011;10079;55.740;37.662;2023-03-03T22:37:29;4.07;;;2.00;;
19836;SDS011;10079;55.740;37.662;2023-03-03T22:40:13;4.00;;;2.20;;
19836;SDS011;10079;55.740;37.662;2023-03-03T22:42:54;5.03;;;2.80;;
19836;SDS011;10079;55.740;37.662;2023-03-03T22:45:38;5.57;;;2.63;;
19836;SDS011;10079;55.740;37.662;2023-03-03T22:48:19;3.77;;;2.40;;
19836;SDS011;10079;55.740;37.662;2023-03-03T22:51:00;7.43;;;2.70;;
19836;SDS011;10079;55.740;37.662;2023-03-03T22:53:41;5.20;;;2.67;;
19836;SDS011;10079;55.740;37.662;2023-03-03T22:56:22;4.17;;;2.40;;
19836;SDS011;10079;55.740;37.662;2023-03-03T22:59:02;4.27;;;2.40;;
19836;SDS011;10079;55.740;37.662;2023-03-03T23:01:43;6.33;;;2.63;;
19836;SDS011;10079;55.740;37.662;2023-03-03T23:04:28;3.97;;;2.70;;
19836;SDS011;10079;55.740;37.662;2023-03-03T23:07:09;5.80;;;3.17;;
19836;SDS011;10079;55.740;37.662;2023-03-03T23:09:50;6.23;;;2.70;;
19836;SDS011;10079;55.740;37.662;2023-03-03T23:12:31;7.60;;;3.00;;
19836;SDS011;10079;55.740;37.662;2023-03-03T23:25:42;5.63;;;3.03;;
19836;SDS011;10079;55.740;37.662;2023-03-03T23:28:23;3.60;;;2.43;;
19836;SDS011;10079;55.740;37.662;2023-03-03T23:31:07;7.07;;;3.30;;
19836;SDS011;10079;55.740;37.662;2023-03-03T23:33:48;5.47;;;2.60;;
19836;SDS011;10079;55.740;37.662;2023-03-03T23:36:29;4.60;;;2.80;;
19836;SDS011;10079;55.740;37.662;2023-03-03T23:39:09;4.47;;;2.40;;
19836;SDS011;10079;55.740;37.662;2023-03-03T23:41:50;6.83;;;2.53;;
19836;SDS011;10079;55.740;37.662;2023-03-03T23:44:31;5.13;;;2.70;;
19836;SDS011;10079;55.740;37.662;2023-03-03T23:47:23;4.70;;;2.70;;
19836;SDS011;10079;55.740;37.662;2023-03-03T23:50:08;6.30;;;2.70;;
19836;SDS011;10079;55.740;37.662;2023-03-03T23:52:53;3.77;;;2.90;;
19836;SDS011;10079;55.740;37.662;2023-03-03T23:55:34;6.43;;;3.03;;
